Time;durP1;ratioP1;P1;durP2;ratioP2;P2;SDS_P1;SDS_P2;PMS_P1;PMS_P2;Temp;Humidity;BMP_temperature;BMP_pressure;BME280_temperature;BME280_humidity;BME280_pressure;Samples;Min_cycle;Max_cycle;Signal;HPM_P1;HPM_P2
2021/03/15 09:04:07;;;;;;;;;;;;;;;;;;;;;
2021/03/15 09:13:37;;;;;;;15.60;5.30;;;6.50;99.90;;;-143.32;100.00;52923.78;6073716;23;20401;-91
2021/03/15 09:19:50;;;;;;;13.23;5.00;;;6.70;99.90;;;-143.32;100.00;52905.59;6069300;23;20498;-91
2021/03/15 09:22:44;;;;;;;17.37;4.33;;;7.00;99.90;;;-143.32;100.00;52939.94;6072834;23;20416;-91
2021/03/15 09:25:36;;;;;;;12.70;3.90;;;6.90;99.90;;;-143.32;100.00;52950.03;6067164;23;20425;-94
2021/03/15 09:28:41;;;;;;;15.60;3.90;;;7.10;99.90;;;-143.32;100.00;52964.16;6066223;23;20444;-90
2021/03/15 09:31:24;;;;;;;13.37;4.37;;;7.30;99.90;;;-143.32;99.68;53067.16;6161416;23;20785;-88
2021/03/15 09:34:02;;;;;;;13.73;3.90;;;7.50;99.90;;;-143.32;98.79;53067.16;6185834;23;20413;-91
2021/03/15 09:56:27;;;;;;;;;;;;;;;;;;;;;
2021/03/15 10:06:29;;;;;;;8.40;2.07;;;8.30;99.90;;;-143.32;89.82;53196.41;5954353;23;20845;-91
2021/03/15 10:09:08;;;;;;;13.97;2.50;;;8.10;99.90;;;-143.32;92.15;53125.72;5953592;24;20438;-90
2021/03/15 10:11:46;;;;;;;10.17;2.30;;;7.90;99.90;;;-143.32;92.76;53166.13;6008108;23;20453;-92
2021/03/15 10:14:24;;;;;;;11.93;2.60;;;7.80;99.90;;;-143.32;93.99;53194.41;6158263;23;20984;-91
2021/03/15 10:18:03;;;;;;;11.50;2.17;;;7.70;99.90;;;-143.32;94.22;53230.75;6188312;23;20452;-92
2021/03/15 10:25:15;;;;;;;17.17;2.30;;;7.30;99.90;;;-143.32;93.59;53198.44;5926468;24;20409;-91
2021/03/15 10:31:48;;;;;;;8.77;2.63;;;7.60;99.90;;;-143.32;93.69;53162.09;6038477;23;21048;-91
2021/03/15 10:34:40;;;;;;;12.90;2.60;;;7.70;99.90;;;-143.32;93.83;53135.81;6001566;23;20474;-93
2021/03/15 10:37:41;;;;;;;20.73;2.90;;;7.80;99.90;;;-143.32;94.55;53111.59;6047574;23;20432;-94
2021/03/15 10:40:21;;;;;;;8.40;2.60;;;7.90;99.90;;;-143.32;93.48;53131.78;6147864;23;20418;-92
2021/03/15 10:54:51;;;;;;;14.10;2.30;;;8.40;99.90;;;-143.32;87.43;53087.34;6188111;23;20401;-91
2021/03/15 10:57:24;;;;;;;10.03;2.03;;;8.70;99.90;;;-143.32;87.64;53121.69;6186069;23;20410;-90
2021/03/15 10:59:51;;;;;;;7.70;2.00;;;8.70;99.90;;;-143.32;89.44;53107.56;6187819;23;20750;-90
2021/03/15 11:02:24;;;;;;;10.30;2.20;;;8.60;99.90;;;-143.32;89.36;53198.44;6190406;23;20422;-90
2021/03/15 11:04:59;;;;;;;9.57;2.40;;;8.40;99.90;;;-143.32;91.64;53133.81;6188120;23;20409;-91
2021/03/15 11:07:30;;;;;;;8.07;2.43;;;8.20;99.90;;;-143.32;94.39;53135.81;6187641;23;20441;-89
2021/03/15 11:10:05;;;;;;;9.73;2.20;;;8.10;99.90;;;-143.32;96.66;53172.19;6187181;23;20406;-88
2021/03/15 11:12:39;;;;;;;10.63;2.00;;;7.70;99.90;;;-143.32;100.00;53151.97;6186984;23;20398;-86
2021/03/15 11:15:39;;;;;;;6.50;2.43;;;7.30;99.90;;;-143.32;100.00;53121.69;6189516;23;20402;-91
2021/03/15 11:18:29;;;;;;;8.60;2.07;;;7.30;99.90;;;-143.32;100.00;53107.56;6077000;23;20885;-92
2021/03/15 11:21:27;;;;;;;;;;;;;;;;;;;;;
2021/03/15 11:24:26;;;;;;;9.13;2.10;;;7.40;99.90;;;-143.32;98.31;53117.66;6189597;23;20477;-92
2021/03/15 11:27:04;;;;;;;6.03;2.20;;;7.40;99.90;;;-143.32;99.17;53129.75;6187861;23;20449;-90
2021/03/15 11:34:14;;;;;;;11.97;2.37;;;7.40;99.90;;;-143.32;98.04;53162.09;6189243;23;20750;-91
2021/03/15 11:44:06;;;;;;;11.17;2.50;;;7.90;99.90;;;-143.32;95.46;53075.25;6187637;23;20421;-92
2021/03/15 11:46:38;;;;;;;14.30;2.60;;;8.30;99.90;;;-143.32;91.95;53083.31;6193603;23;20441;-92
2021/03/15 11:49:10;;;;;;;10.83;2.23;;;8.50;99.90;;;-143.32;90.64;53111.59;6188317;23;20421;-90
2021/03/15 11:51:40;;;;;;;8.37;1.70;;;8.70;99.90;;;-143.32;91.56;53091.41;6187947;23;20387;-90
2021/03/15 11:54:07;;;;;;;9.90;2.10;;;8.60;99.90;;;-143.32;91.64;53071.19;6187586;23;20713;-90
2021/03/15 11:56:34;;;;;;;8.33;1.57;;;8.60;99.90;;;-143.32;92.00;53129.75;6187344;23;20398;-90
2021/03/15 11:59:05;;;;;;;11.20;2.30;;;8.50;99.90;;;-143.32;93.84;53111.59;6189151;23;20422;-90
2021/03/15 12:01:35;;;;;;;9.40;1.83;;;8.20;99.90;;;-143.32;95.32;53077.25;6190054;23;20441;-90
2021/03/15 12:04:05;;;;;;;5.90;1.80;;;8.20;99.90;;;-143.32;96.41;53101.50;6189709;23;20406;-93
2021/03/15 12:06:35;;;;;;;5.63;1.80;;;8.00;99.90;;;-143.32;94.81;53125.72;6187775;23;20449;-90
2021/03/15 12:09:08;;;;;;;7.43;1.50;;;8.00;99.90;;;-143.32;94.92;53160.06;6187745;23;20460;-90
2021/03/15 12:11:37;;;;;;;3.37;1.50;;;8.00;99.90;;;-143.32;94.43;53107.56;6187063;23;20468;-90
2021/03/15 12:14:11;;;;;;;4.50;1.40;;;8.00;99.90;;;-143.32;95.74;53105.53;6187322;23;20425;-90
2021/03/15 12:16:43;;;;;;;6.50;1.93;;;8.10;99.90;;;-143.32;95.70;53055.03;6187925;23;20394;-90
2021/03/15 12:19:12;;;;;;;9.93;1.93;;;8.40;99.90;;;-143.32;94.22;53067.16;6186790;23;20370;-91
2021/03/15 12:21:42;;;;;;;9.60;1.83;;;8.40;99.90;;;-143.32;93.81;53022.72;6187850;23;20973;-92
2021/03/15 12:24:10;;;;;;;13.43;2.37;;;8.70;99.90;;;-143.32;93.14;52982.34;6187569;23;20413;-91
2021/03/15 12:26:37;;;;;;;9.50;2.67;;;8.90;99.90;;;-143.32;92.78;52946.00;6187217;23;20473;-90
2021/03/15 12:29:12;;;;;;;10.73;2.03;;;9.10;99.90;;;-143.32;94.11;53034.84;6186835;23;20885;-89
2021/03/15 12:31:41;;;;;;;8.00;2.33;;;8.90;99.90;;;-143.32;97.08;53061.09;6187772;23;20430;-90
2021/03/15 12:34:11;;;;;;;10.97;2.50;;;8.50;99.90;;;-143.32;100.00;53077.25;6187091;23;20390;-92
2021/03/15 12:36:53;;;;;;;11.70;2.10;;;7.80;99.90;;;-143.32;100.00;53119.66;6189000;23;20394;-92
2021/03/15 12:39:31;;;;;;;16.07;2.33;;;7.40;99.90;;;-143.32;100.00;53121.69;6196025;23;20406;-92
2021/03/15 12:42:00;;;;;;;15.07;2.77;;;6.90;99.90;;;-143.32;100.00;53065.13;6191671;23;20421;-92
2021/03/15 12:44:29;;;;;;;9.30;2.90;;;6.70;99.90;;;-143.32;100.00;53051.00;6190051;23;20406;-92
2021/03/15 12:46:59;;;;;;;10.90;3.17;;;6.50;99.90;;;-143.32;100.00;52956.09;6190213;23;20809;-92
2021/03/15 12:49:29;;;;;;;8.20;3.30;;;6.60;99.90;;;-143.32;100.00;52980.31;6187205;23;20478;-93
2021/03/15 12:51:59;;;;;;;12.13;2.80;;;6.80;99.90;;;-143.32;100.00;52885.41;6186523;23;20441;-94
2021/03/15 12:54:29;;;;;;;7.30;1.93;;;6.80;99.90;;;-143.32;100.00;52972.25;6191009;23;20381;-90
2021/03/15 12:57:05;;;;;;;7.87;2.03;;;7.10;99.90;;;-143.32;100.00;52964.16;6188327;23;20417;-90
2021/03/15 12:59:33;;;;;;;10.17;1.90;;;7.20;99.90;;;-143.32;100.00;53022.72;6188267;23;20721;-91
2021/03/15 13:02:08;;;;;;;5.90;2.00;;;7.30;99.90;;;-143.32;100.00;53038.88;6187230;23;20405;-90
2021/03/15 13:04:40;;;;;;;6.13;2.20;;;7.50;99.90;;;-143.32;100.00;53028.78;6187421;23;20425;-91
2021/03/15 13:07:12;;;;;;;13.00;2.00;;;7.60;99.90;;;-143.32;100.00;52996.47;6187328;23;20422;-93
2021/03/15 13:09:46;;;;;;;12.87;1.90;;;7.70;99.90;;;-143.32;100.00;53024.75;6189800;23;20678;-93
2021/03/15 13:16:07;;;;;;;15.33;2.33;;;7.70;99.90;;;-143.32;100.00;53113.63;6189353;23;20388;-92
2021/03/15 13:18:48;;;;;;;13.60;2.57;;;7.30;99.90;;;-143.32;100.00;53107.56;6197828;23;20761;-92
2021/03/15 13:21:40;;;;;;;4.83;1.93;;;6.60;99.90;;;-143.32;100.00;53141.88;6188580;23;20473;-94
2021/03/15 13:24:40;;;;;;;8.00;1.90;;;6.10;99.90;;;-143.32;100.00;53145.91;6186752;23;20881;-92
2021/03/15 13:27:19;;;;;;;6.97;1.83;;;5.90;99.90;;;-143.32;100.00;53085.34;6186171;23;20445;-88
2021/03/15 13:29:52;;;;;;;13.60;3.47;;;5.80;99.90;;;-143.32;100.00;53059.09;6186108;23;20843;-88
2021/03/15 13:32:24;;;;;;;7.57;2.70;;;5.90;99.90;;;-143.32;100.00;52998.50;6185923;23;20688;-91
2021/03/15 13:34:54;;;;;;;13.30;2.20;;;6.00;99.90;;;-143.32;100.00;53010.63;6188303;23;20390;-91
2021/03/15 13:37:27;;;;;;;11.27;2.43;;;6.10;99.90;;;-143.32;100.00;52970.22;6187239;23;20404;-92
2021/03/15 13:40:17;;;;;;;9.43;2.93;;;6.10;99.90;;;-143.32;100.00;53026.78;6197830;23;20493;-91
2021/03/15 13:43:17;;;;;;;11.93;2.60;;;6.20;99.90;;;-143.32;100.00;52982.34;6205874;23;20408;-91
2021/03/15 13:46:31;;;;;;;10.80;2.13;;;6.20;99.90;;;-143.32;100.00;52986.38;6197517;23;20414;-93
2021/03/15 13:48:58;;;;;;;13.10;2.27;;;6.20;99.90;;;-143.32;100.00;53030.81;6194236;23;20421;-91
2021/03/15 13:51:34;;;;;;;8.83;2.20;;;6.40;99.90;;;-143.32;100.00;52923.78;6200044;23;20397;-91
2021/03/15 13:54:07;;;;;;;9.90;1.97;;;6.60;99.90;;;-143.32;100.00;52964.16;6205060;23;20428;-92
2021/03/15 14:00:27;;;;;;;6.70;3.23;;;7.00;99.90;;;-143.32;100.00;52935.91;6194938;23;20513;-89
2021/03/15 14:02:57;;;;;;;9.00;2.00;;;7.30;99.90;;;-143.32;100.00;52859.16;6186792;23;20413;-91
2021/03/15 14:05:31;;;;;;;14.67;2.80;;;7.50;99.90;;;-143.32;100.00;52859.16;6186447;23;20378;-90
2021/03/15 14:08:04;;;;;;;11.30;2.40;;;7.80;99.90;;;-143.32;100.00;52899.53;6187134;23;20432;-93
2021/03/15 14:10:36;;;;;;;10.53;2.30;;;7.70;99.90;;;-143.32;100.00;52970.22;6191007;23;20425;-89
2021/03/15 14:13:06;;;;;;;9.80;2.23;;;7.60;99.90;;;-143.32;100.00;52925.78;6186528;23;20391;-91
2021/03/15 14:15:41;;;;;;;12.20;2.20;;;7.60;99.90;;;-143.32;100.00;52881.38;6186350;23;20405;-90
2021/03/15 14:18:14;;;;;;;10.10;2.63;;;7.80;99.90;;;-143.32;100.00;52883.38;6200043;23;20396;-91
2021/03/15 14:21:11;;;;;;;10.30;2.60;;;7.80;99.90;;;-143.32;100.00;52907.63;6201623;23;20481;-93
2021/03/15 14:27:21;;;;;;;13.33;4.13;;;7.20;99.90;;;-143.32;100.00;53026.78;6189966;23;20496;-92
2021/03/15 14:29:47;;;;;;;6.87;2.00;;;6.70;99.90;;;-143.32;100.00;53022.72;6188435;23;20437;-90
2021/03/15 14:32:14;;;;;;;6.70;2.17;;;6.50;99.90;;;-143.32;100.00;53024.75;6186448;23;20466;-92
2021/03/15 14:34:44;;;;;;;18.33;2.67;;;6.40;99.90;;;-143.32;100.00;52988.41;6187375;23;20402;-92
2021/03/15 14:37:38;;;;;;;10.20;2.30;;;6.40;99.90;;;-143.32;100.00;52929.84;6189511;23;20926;-93
2021/03/15 14:40:15;;;;;;;12.83;2.90;;;6.40;99.90;;;-143.32;100.00;52972.25;6189776;23;20390;-92
2021/03/15 14:42:47;;;;;;;9.23;2.47;;;6.40;99.90;;;-143.32;100.00;52962.16;6193243;23;20397;-92
2021/03/15 14:46:01;;;;;;;8.70;2.57;;;6.50;99.90;;;-143.32;100.00;52994.47;6189630;23;20746;-91
2021/03/15 14:52:18;;;;;;;16.33;4.33;;;6.70;99.90;;;-143.32;100.00;52962.16;6206281;23;20891;-92
2021/03/15 15:50:31;;;;;;;16.43;3.07;;;8.10;99.90;;;-143.32;85.43;53343.84;6179461;23;20428;-90
2021/03/15 15:53:19;;;;;;;;;;;;;;;;;;;;;
2021/03/15 15:55:49;;;;;;;12.53;3.03;;;7.90;99.90;;;-143.32;86.31;53333.75;6188272;23;20390;-90
2021/03/15 15:58:30;;;;;;;16.07;2.50;;;7.80;99.90;;;-143.32;86.28;53390.31;6187389;23;20414;-90
2021/03/15 16:01:01;;;;;;;11.80;2.27;;;7.80;99.90;;;-143.32;86.21;53341.81;6187405;23;20421;-89
2021/03/15 16:03:33;;;;;;;8.90;2.13;;;7.80;99.90;;;-143.32;85.03;53337.78;6186958;23;20417;-89
2021/03/15 16:06:01;;;;;;;11.83;2.50;;;7.80;99.90;;;-143.32;84.15;53362.03;6186911;23;20402;-90
2021/03/15 16:12:28;;;;;;;14.33;2.80;;;8.00;99.90;;;-143.32;82.45;53366.06;6188412;23;20366;-92
2021/03/15 16:15:17;;;;;;;18.70;2.53;;;8.10;99.90;;;-143.32;84.18;53323.66;6188719;23;20401;-90
2021/03/15 16:17:49;;;;;;;8.60;1.87;;;8.20;99.90;;;-143.32;83.91;53333.75;6188154;23;20386;-89
2021/03/15 16:20:51;;;;;;;13.60;2.57;;;8.30;99.90;;;-143.32;85.88;53261.03;6192448;23;20509;-93
2021/03/15 16:23:19;;;;;;;14.03;3.20;;;8.40;99.90;;;-143.32;85.45;53238.81;6187614;23;20378;-90
2021/03/15 16:26:39;;;;;;;12.67;2.27;;;8.50;99.90;;;-143.32;84.29;53275.19;6187931;23;20804;-89
2021/03/15 16:31:59;;;;;;;22.17;2.40;;;8.40;99.90;;;-143.32;84.33;53291.34;6157799;23;20481;-90
2021/03/15 16:34:29;;;;;;;14.60;2.40;;;8.40;99.90;;;-143.32;84.90;53315.56;6186722;23;20402;-90
2021/03/15 16:37:04;;;;;;;17.37;3.73;;;8.30;99.90;;;-143.32;85.39;53265.09;6187461;23;20412;-91
2021/03/15 16:39:35;;;;;;;13.43;2.53;;;8.40;99.90;;;-143.32;85.14;53305.47;6187541;23;20433;-91
2021/03/15 16:42:08;;;;;;;13.03;2.67;;;8.30;99.90;;;-143.32;85.85;53327.69;6186508;23;20504;-90
2021/03/15 16:44:47;;;;;;;12.63;2.90;;;8.20;99.90;;;-143.32;85.48;53307.50;6188597;23;20406;-91
